Latest Weather Observations for Kalumburu

IDD60801

Issued at 7:01 pm CST Tuesday 30 June 2015 (issued every 30 minutes, with the page automatically refreshed every 10 minutes)

About weather observations | Map of weather stations | Latest weather observations for NT | Other Formats
Station Details ID: 001019 Name: KALUMBURU Lat: -14.30 Lon: 126.65 Height: 23.0 m
Data from the previous 72 hours. | See also: Recent months at Kalumburu
Date/Time
CST
Temp
°C
App
Temp
°C
Dew
Point
Rel
Hum
%
Delta-T
°C
Wind Press
QNH
hPa
Press
MSL
hPa
Rain
since 9 am
mm
Dir
 
Spd
km/h
Gust
km/h
Spd
kts
Gust
kts
30/07:00pm 26.7 24.5 6.2 27 10.7 ENE 7 11 4 6 1015.5 1015.4 0.0
30/06:30pm 28.7 26.1 6.1 24 11.9 E 9 15 5 8 1015.1 1015.0 0.0
30/06:00pm 29.9 26.5 5.9 22 12.7 E 13 20 7 11 1014.8 1014.7 0.0
30/05:30pm 30.5 27.1 5.7 21 13.1 ESE 13 20 7 11 1014.5 1014.4 0.0
30/05:00pm 31.4 28.5 6.5 21 13.4 E 11 20 6 11 1014.3 1014.2 0.0
30/04:30pm 31.4 28.0 5.8 20 13.6 E 13 32 7 17 1014.2 1014.1 0.0
30/04:00pm 31.7 28.8 6.7 21 13.5 SE 11 22 6 12 1014.2 1014.1 0.0
30/03:30pm 32.1 29.2 6.3 20 13.9 E 11 19 6 10 1014.5 1014.4 0.0
30/03:00pm 31.7 29.1 6.0 20 13.7 SE 9 24 5 13 1014.8 1014.7 0.0
30/02:30pm 31.6 27.8 5.9 20 13.7 NE 15 26 8 14 1015.3 1015.2 0.0
30/02:00pm 32.0 28.7 6.2 20 13.9 ESE 13 24 7 13 1015.7 1015.6 0.0
30/01:30pm 30.9 26.6 5.3 20 13.4 ENE 17 32 9 17 1016.1 1016.0 0.0
30/01:00pm 31.8 27.7 6.1 20 13.7 ENE 17 30 9 16 1016.8 1016.7 0.0
30/12:30pm 30.5 26.3 5.7 21 13.1 SE 17 24 9 13 1017.4 1017.3 0.0
30/12:00pm 29.9 25.7 5.9 22 12.7 SE 17 30 9 16 1017.8 1017.7 0.0
30/11:30am 29.3 24.9 7.2 25 11.9 ESE 20 32 11 17 1018.2 1018.1 0.0
30/11:00am 28.5 24.0 6.0 24 11.8 ESE 19 30 10 16 1018.4 1018.3 0.0
30/10:30am 26.1 24.0 8.1 32 9.6 SSW 9 13 5 7 1018.7 1018.6 0.0
30/10:00am 23.8 22.5 9.8 41 7.6 S 7 11 4 6 1019.0 1018.9 0.0
30/09:30am 20.8 19.7 10.0 50 5.8 SW 6 7 3 4 1019.1 1019.0 0.0
30/09:00am 18.5 17.4 9.8 57 4.6 SW 6 9 3 5 1018.9 1018.8 0.0
30/08:30am 16.4 14.9 10.7 69 3.0 SSE 9 15 5 8 1018.6 1018.5 0.0
30/08:00am 12.9 11.7 10.4 85 1.3 S 7 13 4 7 1018.1 1018.0 0.0
30/07:30am 10.5 10.1 8.3 86 1.1 CALM 0 6 0 3 1017.8 1017.7 0.0
30/07:00am 11.2 10.9 8.6 84 1.3 CALM 0 0 0 0 1017.5 1017.4 0.0
30/06:30am 11.3 11.0 8.7 84 1.3 CALM 0 0 0 0 1017.4 1017.3 0.0
30/06:00am 11.8 11.6 9.0 83 1.4 CALM 0 0 0 0 1017.3 1017.2 0.0
30/05:30am 11.7 11.6 9.3 85 1.2 CALM 0 0 0 0 1017.2 1017.1 0.0
30/05:00am 11.5 11.2 8.7 83 1.4 CALM 0 0 0 0 1017.2 1017.1 0.0
30/04:30am 11.8 11.5 8.6 81 1.6 CALM 0 0 0 0 1017.2 1017.1 0.0
30/04:00am 12.2 11.5 8.5 78 1.8 SSW 2 6 1 3 1017.3 1017.2 0.0
30/03:30am 12.7 12.5 9.2 79 1.8 CALM 0 0 0 0 1017.2 1017.1 0.0
30/03:00am 13.1 12.9 9.2 77 2.0 CALM 0 0 0 0 1017.4 1017.3 0.0
30/02:30am 13.0 12.4 8.9 76 2.1 S 2 7 1 4 1017.5 1017.4 0.0
30/02:00am 13.8 13.5 8.8 72 2.5 CALM 0 6 0 3 1017.6 1017.5 0.0
30/01:30am 14.2 13.2 8.8 70 2.7 E 4 7 2 4 1017.7 1017.6 0.0
30/01:00am 15.2 14.2 8.9 66 3.2 SSE 4 7 2 4 1017.6 1017.5 0.0
30/12:30am 15.9 15.7 9.1 64 3.5 CALM 0 0 0 0 1017.6 1017.5 0.0
30/12:00am 16.9 16.7 9.1 60 4.0 CALM 0 0 0 0 1017.6 1017.5 0.0
 
Date/Time
CST
Temp
°C
App
Temp
°C
Dew
Point
Rel
Hum
%
Delta-T
°C
Wind Press
QNH
hPa
Press
MSL
hPa
Rain
since 9 am
mm
Dir
 
Spd
km/h
Gust
km/h
Spd
kts
Gust
kts
29/11:30pm 18.9 18.7 9.1 53 5.1 CALM 0 0 0 0 1017.6 1017.5 0.0
29/11:00pm 20.9 19.5 8.9 46 6.3 S 6 9 3 5 1017.5 1017.4 0.0
29/10:30pm 21.4 20.3 8.3 43 6.9 SSW 4 7 2 4 1017.4 1017.3 0.0
29/10:00pm 23.7 21.7 7.3 35 8.6 E 7 15 4 8 1017.3 1017.2 0.0
29/09:30pm 24.5 22.6 7.6 34 8.9 W 7 17 4 9 1017.0 1016.9 0.0
29/09:00pm 22.6 21.8 8.3 40 7.6 SSW 2 7 1 4 1016.6 1016.5 0.0
29/08:30pm 22.1 20.5 7.9 40 7.4 SE 6 7 3 4 1016.2 1016.1 0.0
29/08:00pm 22.6 21.7 7.6 38 7.8 SSE 2 7 1 4 1016.0 1015.9 0.0
29/07:30pm 23.4 21.8 7.9 37 8.2 S 6 7 3 4 1015.7 1015.6 0.0
29/07:00pm 25.9 24.8 7.0 30 9.9 ENE 2 9 1 5 1015.5 1015.4 0.0
29/06:30pm 28.3 26.0 5.8 24 11.7 E 7 11 4 6 1015.3 1015.2 0.0
29/06:00pm 29.9 27.1 5.2 21 12.9 ENE 9 15 5 8 1015.0 1014.9 0.0
29/05:30pm 30.5 27.8 5.7 21 13.1 NNE 9 15 5 8 1014.8 1014.7 0.0
29/05:00pm 30.8 27.9 6.6 22 13.0 NNW 11 17 6 9 1014.5 1014.4 0.0
29/04:30pm 31.3 27.8 3.4 17 14.2 E 11 17 6 9 1014.3 1014.2 0.0
29/04:00pm 31.4 28.0 4.2 18 14.1 E 11 19 6 10 1014.4 1014.3 0.0
29/03:30pm 31.7 27.6 4.5 18 14.2 NE 15 26 8 14 1014.6 1014.5 0.0
29/03:00pm 31.4 27.7 4.2 18 14.1 ENE 13 24 7 13 1014.9 1014.8 0.0
29/02:30pm 31.6 27.9 4.4 18 14.1 ENE 13 26 7 14 1015.4 1015.3 0.0
29/02:00pm 31.0 27.3 4.7 19 13.7 NE 13 22 7 12 1015.9 1015.8 0.0
29/01:30pm 30.9 27.0 5.3 20 13.4 ENE 15 20 8 11 1016.4 1016.3 0.0
29/01:00pm 30.2 25.9 3.3 18 13.6 ENE 15 26 8 14 1016.9 1016.8 0.0
29/12:30pm 30.2 26.0 4.0 19 13.4 ESE 15 22 8 12 1017.4 1017.3 0.0
29/12:00pm 29.2 24.6 3.9 20 12.9 SE 17 26 9 14 1017.8 1017.7 0.0
29/11:30am 28.8 24.4 2.9 19 12.9 SE 15 24 8 13 1018.4 1018.3 0.0
29/11:00am 28.5 25.0 3.4 20 12.6 SE 11 20 6 11 1018.7 1018.6 0.0
29/10:30am 25.2 22.5 5.4 28 10.1 SSW 9 13 5 7 1019.0 1018.9 0.0
29/10:00am 22.4 20.4 7.0 37 7.9 S 7 13 4 7 1019.3 1019.2 0.0
29/09:30am 19.9 17.6 7.6 45 6.3 S 9 13 5 7 1019.3 1019.2 0.0
29/09:00am 17.4 14.8 7.7 53 4.9 SSW 11 17 6 9 1019.1 1019.0 0.0
29/08:30am 16.0 14.2 8.0 59 4.0 S 7 11 4 6 1018.7 1018.6 0.0
29/08:00am 14.7 12.0 7.3 61 3.6 S 11 19 6 10 1018.4 1018.3 0.0
29/07:30am 14.6 11.9 7.4 62 3.5 SSW 11 19 6 10 1018.2 1018.1 0.0
29/07:00am 13.0 11.0 8.5 74 2.2 SSW 9 13 5 7 1018.0 1017.9 0.0
29/06:30am 11.2 9.4 7.3 77 1.9 SSW 6 11 3 6 1017.8 1017.7 0.0
29/06:00am 11.0 9.1 6.7 75 2.0 SSE 6 9 3 5 1017.9 1017.8 0.0
29/05:30am 10.6 8.7 6.7 77 1.8 SSE 6 9 3 5 1017.8 1017.7 0.0
29/05:00am 11.5 9.3 6.2 70 2.5 SSE 7 11 4 6 1017.7 1017.6 0.0
29/04:30am 11.3 9.8 6.6 73 2.2 SE 4 9 2 5 1017.6 1017.5 0.0
29/04:00am 12.0 10.3 8.3 78 1.8 S 7 15 4 8 1017.6 1017.5 0.0
29/03:30am 10.4 8.4 6.9 79 1.7 S 7 13 4 7 1017.8 1017.7 0.0
29/03:00am 10.8 10.2 7.5 80 1.6 CALM 0 0 0 0 1018.1 1018.0 0.0
29/02:30am 11.1 10.5 7.4 78 1.8 CALM 0 0 0 0 1018.4 1018.3 0.0
29/02:00am 11.1 10.1 7.2 77 1.9 SE 2 7 1 4 1018.5 1018.4 0.0
29/01:30am 11.6 11.1 7.7 77 1.9 CALM 0 0 0 0 1018.8 1018.7 0.0
29/01:00am 12.5 12.0 7.8 73 2.3 CALM 0 0 0 0 1018.7 1018.6 0.0
29/12:30am 12.7 12.2 7.8 72 2.4 CALM 0 0 0 0 1018.8 1018.7 0.0
29/12:00am 13.0 11.6 7.2 68 2.8 S 4 9 2 5 1018.8 1018.7 0.0
 
Date/Time
CST
Temp
°C
App
Temp
°C
Dew
Point
Rel
Hum
%
Delta-T
°C
Wind Press
QNH
hPa
Press
MSL
hPa
Rain
since 9 am
mm
Dir
 
Spd
km/h
Gust
km/h
Spd
kts
Gust
kts
28/11:30pm 14.2 13.2 7.3 63 3.4 SE 2 7 1 4 1018.7 1018.6 0.0
28/11:00pm 15.8 14.3 7.0 56 4.3 NNE 4 9 2 5 1018.6 1018.5 0.0
28/10:30pm 17.5 15.9 6.4 48 5.5 NNE 4 7 2 4 1018.5 1018.4 0.0
28/10:00pm 18.5 17.0 7.0 47 5.8 SSE 4 9 2 5 1018.3 1018.2 0.0
28/09:30pm 17.7 16.0 7.4 51 5.2 ESE 6 7 3 4 1018.0 1017.9 0.0
28/09:00pm 17.2 15.4 8.1 55 4.6 ENE 7 9 4 5 1017.8 1017.7 0.0
28/08:30pm 17.6 17.2 8.2 54 4.8 CALM 0 0 0 0 1017.6 1017.5 0.0
28/08:00pm 19.2 18.5 7.0 45 6.2 CALM 0 0 0 0 1017.2 1017.1 0.0
28/07:30pm 21.6 20.5 7.1 39 7.4 NNW 2 9 1 5 1016.7 1016.6 0.0
28/07:00pm 23.4 20.8 4.4 29 9.4 NW 7 9 4 5 1016.4 1016.3 0.0
28/06:30pm 26.1 24.7 3.4 23 11.2 CALM 0 6 0 3 1016.0 1015.9 0.0
28/06:00pm 29.0 26.2 2.3 18 13.2 SE 6 7 3 4 1015.7 1015.6 0.0
28/05:30pm 29.2 25.8 1.7 17 13.4 SE 9 17 5 9 1015.6 1015.5 0.0
28/05:00pm 30.0 27.1 1.5 16 14.0 E 6 13 3 7 1015.5 1015.4 0.0
28/04:30pm 30.3 27.4 1.7 16 14.1 E 6 9 3 5 1015.7 1015.6 0.0
28/04:00pm 29.9 26.6 2.2 17 13.7 SE 9 17 5 9 1015.9 1015.8 0.0
28/03:30pm 30.4 27.4 1.8 16 14.1 SSE 7 13 4 7 1016.1 1016.0 0.0
28/03:00pm 29.8 25.9 1.3 16 13.9 E 11 20 6 11 1016.5 1016.4 0.0
28/02:30pm 29.6 26.2 2.0 17 13.6 E 9 19 5 10 1017.0 1016.9 0.0
28/02:00pm 29.3 25.4 0.9 16 13.7 SE 11 17 6 9 1017.4 1017.3 0.0
28/01:30pm 28.9 24.8 2.2 18 13.1 SE 13 22 7 12 1018.0 1017.9 0.0
28/01:00pm 28.7 25.1 2.8 19 12.9 ESE 11 20 6 11 1018.4 1018.3 0.0
28/12:30pm 28.8 24.6 3.6 20 12.7 ESE 15 22 8 12 1019.1 1019.0 0.0
28/12:00pm 28.3 24.9 3.9 21 12.3 ESE 11 19 6 10 1019.4 1019.3 0.0
28/11:30am 27.5 23.7 3.9 22 11.8 ESE 13 26 7 14 1019.9 1019.8 0.0
28/11:00am 26.5 23.0 3.7 23 11.4 E 11 19 6 10 1020.3 1020.2 0.0
28/10:30am 26.1 23.6 4.6 25 10.8 ESE 7 17 4 9 1020.5 1020.4 0.0
28/10:00am 23.8 22.8 7.4 35 8.6 W 2 7 1 4 1020.7 1020.6 0.0
28/09:30am 20.5 19.8 8.5 46 6.3 WSW 2 7 1 4 1020.7 1020.6 0.0
28/09:00am 17.9 16.8 9.8 59 4.3 SW 6 9 3 5 1020.6 1020.5 0.0
28/08:30am 15.2 14.0 10.4 73 2.5 SSW 7 13 4 7 1020.4 1020.3 0.0
28/08:00am 12.0 10.6 9.4 84 1.3 SSW 7 13 4 7 1020.0 1019.9 0.0
28/07:30am 9.5 7.8 7.6 88 0.9 SSW 6 9 3 5 1019.8 1019.7 0.0
28/07:00am 9.4 8.9 7.7 89 0.8 CALM 0 0 0 0 1019.5 1019.4 0.0
28/06:30am 9.3 8.7 7.4 88 0.9 CALM 0 0 0 0 1019.3 1019.2 0.0
28/06:00am 9.5 8.9 7.6 88 0.9 CALM 0 0 0 0 1019.2 1019.1 0.0
28/05:30am 9.8 9.3 7.7 87 1.0 CALM 0 0 0 0 1019.2 1019.1 0.0
28/05:00am 9.8 9.3 7.9 88 0.9 CALM 0 6 0 3 1019.2 1019.1 0.0
28/04:30am 10.0 9.5 7.9 87 1.0 CALM 0 6 0 3 1019.2 1019.1 0.0
28/04:00am 10.7 10.4 8.6 87 1.0 CALM 0 0 0 0 1019.2 1019.1 0.0
28/03:30am 10.8 10.5 8.7 87 1.0 CALM 0 0 0 0 1019.2 1019.1 0.0
28/03:00am 10.8 10.4 8.4 85 1.2 CALM 0 0 0 0 1019.2 1019.1 0.0
28/02:30am 11.7 11.6 9.3 85 1.2 CALM 0 0 0 0 1019.3 1019.2 0.0
28/02:00am 11.6 11.3 8.8 83 1.4 CALM 0 0 0 0 1019.4 1019.3 0.0
28/01:30am 12.4 12.1 8.7 78 1.8 CALM 0 0 0 0 1019.4 1019.3 0.0
28/01:00am 13.1 12.9 9.2 77 2.0 CALM 0 0 0 0 1019.4 1019.3 0.0
28/12:30am 12.5 12.3 9.1 80 1.7 CALM 0 2 0 1 1019.3 1019.2 0.0
28/12:00am 13.7 12.8 9.2 74 2.3 SE 4 7 2 4 1019.4 1019.3 0.0
 
Date/Time
CST
Temp
°C
App
Temp
°C
Dew
Point
Rel
Hum
%
Delta-T
°C
Wind Press
QNH
hPa
Press
MSL
hPa
Rain
since 9 am
mm
Dir
 
Spd
km/h
Gust
km/h
Spd
kts
Gust
kts
27/11:30pm 14.6 14.7 10.2 75 2.3 CALM 0 0 0 0 1019.6 1019.5 0.0
27/11:00pm 14.5 13.8 9.9 74 2.4 SE 4 6 2 3 1019.5 1019.4 0.0
27/10:30pm 15.3 14.7 10.3 72 2.6 SE 4 7 2 4 1019.3 1019.2 0.0
27/10:00pm 15.6 15.6 9.9 69 3.0 CALM 0 0 0 0 1019.3 1019.2 0.0
27/09:30pm 17.3 17.4 10.0 62 3.8 CALM 0 0 0 0 1019.1 1019.0 0.0
27/09:00pm 19.3 19.4 10.0 55 5.0 CALM 0 0 0 0 1018.8 1018.7 0.0

Other Formats:

Comma delimited format used in spreadsheet applications
http://www.bom.gov.au/fwo/IDD60801/IDD60801.94100.axf

JavaScript Object Notation format (JSON) in row-major order
http://www.bom.gov.au/fwo/IDD60801/IDD60801.94100.json